Lavaca, Alabama
Current Conditions -  °F | °C
As of 5:55 PM on Friday 28 Nov 2014 (Local Time) from KDYA Reporting Station
Clear Clear  
Wind Chill: 40°   Ceiling: Unl
Heat Index: 40°   Visibility: 10mi
Dew Point: 32°   Wind: 3mph
Humidity: 73%   Direction: 130°SE
Pressure: 30.28"   Gusts: NA
Location:  32.0668°N, 88.2133°W
Report Text: KDYA 282355Z AUTO 13003KT 10SM CLR 04/00 A3028 RMK AO2 T00431002 10140 20043
Loading
Personal Weather Stations






























Interactive Weather Map New forecast layout! Learn more

10-Day Weather Forecast

Advertisements
Track Severe Weather on mobile